sensor_id;sensor_type;location;lat;lon;timestamp;pressure;altitude;pressure_sealevel;temperature;humidity
27712;BME280;2377;51.734;8.950;2023-05-22T00:01:37;97780.53;;;20.12;64.83
27712;BME280;2377;51.734;8.950;2023-05-22T00:04:07;97785.47;;;20.08;65.06
27712;BME280;2377;51.734;8.950;2023-05-22T00:06:34;97783.72;;;20.03;65.47
27712;BME280;2377;51.734;8.950;2023-05-22T00:09:01;97784.81;;;19.97;65.53
27712;BME280;2377;51.734;8.950;2023-05-22T00:11:29;97776.53;;;19.95;65.47
27712;BME280;2377;51.734;8.950;2023-05-22T00:13:57;97773.44;;;19.93;65.64
27712;BME280;2377;51.734;8.950;2023-05-22T00:16:24;97769.56;;;19.91;65.49
27712;BME280;2377;51.734;8.950;2023-05-22T00:18:51;97769.13;;;19.83;65.49
27712;BME280;2377;51.734;8.950;2023-05-22T00:21:18;97771.75;;;19.78;66.06
27712;BME280;2377;51.734;8.950;2023-05-22T00:23:45;97761.13;;;19.75;66.48
27712;BME280;2377;51.734;8.950;2023-05-22T00:26:13;97767.16;;;19.70;66.52
27712;BME280;2377;51.734;8.950;2023-05-22T00:28:42;97764.81;;;19.63;66.43
27712;BME280;2377;51.734;8.950;2023-05-22T00:31:11;97763.84;;;19.59;66.63
27712;BME280;2377;51.734;8.950;2023-05-22T00:33:37;97754.00;;;19.56;66.72
27712;BME280;2377;51.734;8.950;2023-05-22T00:36:05;97750.94;;;19.54;67.12
27712;BME280;2377;51.734;8.950;2023-05-22T00:38:34;97747.38;;;19.45;67.74
27712;BME280;2377;51.734;8.950;2023-05-22T00:41:04;97751.06;;;19.34;68.05
27712;BME280;2377;51.734;8.950;2023-05-22T00:43:32;97753.97;;;19.27;68.53
27712;BME280;2377;51.734;8.950;2023-05-22T00:45:59;97745.47;;;19.21;69.12
27712;BME280;2377;51.734;8.950;2023-05-22T00:48:28;97740.53;;;19.20;69.31
27712;BME280;2377;51.734;8.950;2023-05-22T00:50:56;97742.31;;;19.25;69.55
27712;BME280;2377;51.734;8.950;2023-05-22T00:53:24;97743.56;;;19.32;69.43
27712;BME280;2377;51.734;8.950;2023-05-22T00:55:53;97731.34;;;19.38;69.18
27712;BME280;2377;51.734;8.950;2023-05-22T00:58:21;97734.41;;;19.45;69.46
27712;BME280;2377;51.734;8.950;2023-05-22T01:00:51;97730.72;;;19.51;69.24
27712;BME280;2377;51.734;8.950;2023-05-22T01:03:18;97732.72;;;19.59;69.01
27712;BME280;2377;51.734;8.950;2023-05-22T01:05:52;97731.63;;;19.65;68.87
27712;BME280;2377;51.734;8.950;2023-05-22T01:08:19;97730.31;;;19.73;68.43
27712;BME280;2377;51.734;8.950;2023-05-22T01:10:53;97727.94;;;19.77;68.43
27712;BME280;2377;51.734;8.950;2023-05-22T01:13:32;97720.09;;;19.82;68.25
27712;BME280;2377;51.734;8.950;2023-05-22T01:16:16;97725.50;;;19.85;68.10
27712;BME280;2377;51.734;8.950;2023-05-22T01:18:56;97717.44;;;19.87;67.77
27712;BME280;2377;51.734;8.950;2023-05-22T01:21:36;97713.56;;;19.90;67.91
27712;BME280;2377;51.734;8.950;2023-05-22T01:24:52;97712.25;;;19.87;67.93
27712;BME280;2377;51.734;8.950;2023-05-22T01:27:44;97704.19;;;19.89;67.98
27712;BME280;2377;51.734;8.950;2023-05-22T01:30:54;97697.19;;;19.89;67.90
27712;BME280;2377;51.734;8.950;2023-05-22T01:33:23;97713.25;;;19.91;67.69
27712;BME280;2377;51.734;8.950;2023-05-22T01:35:56;97695.09;;;19.91;67.80
27712;BME280;2377;51.734;8.950;2023-05-22T01:38:24;97700.78;;;19.93;67.60
27712;BME280;2377;51.734;8.950;2023-05-22T01:40:53;97696.34;;;19.94;67.42
27712;BME280;2377;51.734;8.950;2023-05-22T01:43:21;97702.81;;;19.96;67.30
27712;BME280;2377;51.734;8.950;2023-05-22T01:45:48;97708.50;;;19.98;67.54
27712;BME280;2377;51.734;8.950;2023-05-22T01:48:17;97703.31;;;19.98;67.47
27712;BME280;2377;51.734;8.950;2023-05-22T01:50:47;97701.78;;;19.97;67.48
27712;BME280;2377;51.734;8.950;2023-05-22T01:53:25;97713.19;;;19.96;67.36
27712;BME280;2377;51.734;8.950;2023-05-22T01:56:02;97710.41;;;19.93;67.31
27712;BME280;2377;51.734;8.950;2023-05-22T01:58:42;97713.25;;;19.91;67.46
27712;BME280;2377;51.734;8.950;2023-05-22T02:01:13;97713.00;;;19.93;67.57
27712;BME280;2377;51.734;8.950;2023-05-22T02:03:42;97716.34;;;19.93;67.35
27712;BME280;2377;51.734;8.950;2023-05-22T02:06:13;97703.38;;;19.93;67.61
27712;BME280;2377;51.734;8.950;2023-05-22T02:08:41;97699.25;;;19.92;67.60
27712;BME280;2377;51.734;8.950;2023-05-22T02:11:11;97712.22;;;19.92;67.44
27712;BME280;2377;51.734;8.950;2023-05-22T02:13:40;97707.28;;;19.91;67.56
27712;BME280;2377;51.734;8.950;2023-05-22T02:16:08;97693.06;;;19.88;67.69
27712;BME280;2377;51.734;8.950;2023-05-22T02:18:36;97709.19;;;19.85;67.47
27712;BME280;2377;51.734;8.950;2023-05-22T02:21:07;97698.84;;;19.80;67.72
27712;BME280;2377;51.734;8.950;2023-05-22T02:23:34;97704.06;;;19.75;67.48
27712;BME280;2377;51.734;8.950;2023-05-22T02:26:02;97702.03;;;19.72;67.50
27712;BME280;2377;51.734;8.950;2023-05-22T02:28:30;97696.09;;;19.66;67.89
27712;BME280;2377;51.734;8.950;2023-05-22T02:30:57;97699.72;;;19.65;67.84
27712;BME280;2377;51.734;8.950;2023-05-22T02:33:24;97695.63;;;19.59;68.08
27712;BME280;2377;51.734;8.950;2023-05-22T02:35:51;97696.19;;;19.56;68.14
27712;BME280;2377;51.734;8.950;2023-05-22T02:38:19;97692.31;;;19.53;68.00
27712;BME280;2377;51.734;8.950;2023-05-22T02:40:46;97681.94;;;19.53;68.04
27712;BME280;2377;51.734;8.950;2023-05-22T02:43:14;97685.59;;;19.52;68.38
27712;BME280;2377;51.734;8.950;2023-05-22T02:45:41;97690.53;;;19.49;68.35
27712;BME280;2377;51.734;8.950;2023-05-22T02:48:08;97687.22;;;19.43;68.63
27712;BME280;2377;51.734;8.950;2023-05-22T02:50:35;97682.56;;;19.40;69.04
27712;BME280;2377;51.734;8.950;2023-05-22T02:53:02;97684.69;;;19.38;69.14
27712;BME280;2377;51.734;8.950;2023-05-22T02:55:31;97680.28;;;19.38;69.08
27712;BME280;2377;51.734;8.950;2023-05-22T02:57:57;97684.69;;;19.38;69.14
27712;BME280;2377;51.734;8.950;2023-05-22T03:00:24;97673.25;;;19.39;69.23
27712;BME280;2377;51.734;8.950;2023-05-22T03:02:51;97668.06;;;19.39;69.16
27712;BME280;2377;51.734;8.950;2023-05-22T03:05:18;97672.75;;;19.37;69.42
27712;BME280;2377;51.734;8.950;2023-05-22T03:07:45;97672.75;;;19.37;69.40
27712;BME280;2377;51.734;8.950;2023-05-22T03:10:13;97671.72;;;19.38;69.46
27712;BME280;2377;51.734;8.950;2023-05-22T03:12:41;97662.38;;;19.37;69.74
27712;BME280;2377;51.734;8.950;2023-05-22T03:15:10;97670.16;;;19.37;69.77
27712;BME280;2377;51.734;8.950;2023-05-22T03:17:37;97666.81;;;19.36;69.85
27712;BME280;2377;51.734;8.950;2023-05-22T03:20:06;97664.47;;;19.35;69.98
27712;BME280;2377;51.734;8.950;2023-05-22T03:22:33;97668.91;;;19.34;70.32
27712;BME280;2377;51.734;8.950;2023-05-22T03:25:00;97668.13;;;19.34;70.20
27712;BME280;2377;51.734;8.950;2023-05-22T03:27:28;97662.94;;;19.34;70.12
27712;BME280;2377;51.734;8.950;2023-05-22T03:29:56;97657.75;;;19.34;70.13
27712;BME280;2377;51.734;8.950;2023-05-22T03:32:23;97660.34;;;19.34;70.10
27712;BME280;2377;51.734;8.950;2023-05-22T03:34:50;97657.75;;;19.34;70.21
27712;BME280;2377;51.734;8.950;2023-05-22T03:37:17;97661.38;;;19.33;70.54
27712;BME280;2377;51.734;8.950;2023-05-22T03:39:44;97657.25;;;19.32;70.50
27712;BME280;2377;51.734;8.950;2023-05-22T03:42:11;97659.59;;;19.28;70.83
27712;BME280;2377;51.734;8.950;2023-05-22T03:44:38;97663.00;;;19.29;70.72
27712;BME280;2377;51.734;8.950;2023-05-22T03:47:06;97664.53;;;19.30;70.88
27712;BME280;2377;51.734;8.950;2023-05-22T03:49:33;97669.19;;;19.28;70.99
27712;BME280;2377;51.734;8.950;2023-05-22T03:52:01;97659.91;;;19.27;70.75
27712;BME280;2377;51.734;8.950;2023-05-22T03:54:28;97658.06;;;19.27;70.99
27712;BME280;2377;51.734;8.950;2023-05-22T03:56:54;97657.31;;;19.27;71.00
27712;BME280;2377;51.734;8.950;2023-05-22T03:59:21;97662.75;;;19.25;71.14
27712;BME280;2377;51.734;8.950;2023-05-22T04:01:48;97662.75;;;19.25;71.28
27712;BME280;2377;51.734;8.950;2023-05-22T04:04:17;97666.09;;;19.26;71.11
27712;BME280;2377;51.734;8.950;2023-05-22T04:06:44;97662.75;;;19.25;71.05
27712;BME280;2377;51.734;8.950;2023-05-22T04:09:12;97664.03;;;19.28;71.18
27712;BME280;2377;51.734;8.950;2023-05-22T04:11:39;97674.38;;;19.28;71.19
27712;BME280;2377;51.734;8.950;2023-05-22T04:14:07;97671.78;;;19.28;71.25
27712;BME280;2377;51.734;8.950;2023-05-22T04:16:34;97674.91;;;19.30;71.27
27712;BME280;2377;51.734;8.950;2023-05-22T04:19:01;97668.19;;;19.29;71.20
27712;BME280;2377;51.734;8.950;2023-05-22T04:21:30;97675.94;;;19.29;71.15
27712;BME280;2377;51.734;8.950;2023-05-22T04:23:58;97674.38;;;19.28;71.19
27712;BME280;2377;51.734;8.950;2023-05-22T04:26:26;97672.56;;;19.28;71.42
27712;BME280;2377;51.734;8.950;2023-05-22T04:28:54;97670.78;;;19.29;71.56
27712;BME280;2377;51.734;8.950;2023-05-22T04:31:21;97671.53;;;19.29;71.77
27712;BME280;2377;51.734;8.950;2023-05-22T04:33:48;97678.03;;;19.27;71.73
27712;BME280;2377;51.734;8.950;2023-05-22T04:36:18;97667.66;;;19.27;71.86
27712;BME280;2377;51.734;8.950;2023-05-22T04:38:48;97678.03;;;19.27;71.75
27712;BME280;2377;51.734;8.950;2023-05-22T04:41:15;97678.03;;;19.27;71.80
27712;BME280;2377;51.734;8.950;2023-05-22T04:43:43;97675.94;;;19.29;71.88
27712;BME280;2377;51.734;8.950;2023-05-22T04:46:13;97673.06;;;19.30;72.01
27712;BME280;2377;51.734;8.950;2023-05-22T04:48:40;97674.91;;;19.30;72.11
27712;BME280;2377;51.734;8.950;2023-05-22T04:51:07;97679.81;;;19.31;72.07
27712;BME280;2377;51.734;8.950;2023-05-22T04:53:34;97682.41;;;19.31;72.33
27712;BME280;2377;51.734;8.950;2023-05-22T04:56:05;97681.34;;;19.32;72.17
27712;BME280;2377;51.734;8.950;2023-05-22T04:58:32;97674.63;;;19.31;72.41
27712;BME280;2377;51.734;8.950;2023-05-22T05:00:59;97671.75;;;19.33;72.21
27712;BME280;2377;51.734;8.950;2023-05-22T05:03:27;97672.25;;;19.35;72.36
27712;BME280;2377;51.734;8.950;2023-05-22T05:05:54;97677.44;;;19.35;72.42
27712;BME280;2377;51.734;8.950;2023-05-22T05:08:22;97674.84;;;19.35;72.69
27712;BME280;2377;51.734;8.950;2023-05-22T05:10:49;97663.94;;;19.38;72.54
27712;BME280;2377;51.734;8.950;2023-05-22T05:13:17;97664.72;;;19.38;72.63
27712;BME280;2377;51.734;8.950;2023-05-22T05:15:44;97666.00;;;19.41;72.42
27712;BME280;2377;51.734;8.950;2023-05-22T05:18:11;97667.25;;;19.43;72.43
27712;BME280;2377;51.734;8.950;2023-05-22T05:20:38;97664.88;;;19.47;72.59
27712;BME280;2377;51.734;8.950;2023-05-22T05:23:05;97666.94;;;19.50;72.61
27712;BME280;2377;51.734;8.950;2023-05-22T05:25:31;97670.03;;;19.52;72.52
27712;BME280;2377;51.734;8.950;2023-05-22T05:28:00;97667.66;;;19.56;72.50
27712;BME280;2377;51.734;8.950;2023-05-22T05:30:28;97666.56;;;19.62;72.68
27712;BME280;2377;51.734;8.950;2023-05-22T05:32:56;97662.09;;;19.68;72.88
27712;BME280;2377;51.734;8.950;2023-05-22T05:35:23;97669.84;;;19.73;72.64
27712;BME280;2377;51.734;8.950;2023-05-22T05:37:50;97660.47;;;19.77;72.77
27712;BME280;2377;51.734;8.950;2023-05-22T05:40:17;97668.22;;;19.82;72.76
27712;BME280;2377;51.734;8.950;2023-05-22T05:42:44;97660.94;;;19.84;72.24
27712;BME280;2377;51.734;8.950;2023-05-22T05:45:12;97664.78;;;19.87;72.14
27712;BME280;2377;51.734;8.950;2023-05-22T05:47:40;97667.13;;;19.88;72.26
27712;BME280;2377;51.734;8.950;2023-05-22T05:50:09;97663.19;;;19.91;72.35
27712;BME280;2377;51.734;8.950;2023-05-22T05:52:35;97670.66;;;19.97;71.98
27712;BME280;2377;51.734;8.950;2023-05-22T05:55:03;97670.59;;;20.02;72.48
27712;BME280;2377;51.734;8.950;2023-05-22T05:57:34;97678.03;;;20.09;72.17
27712;BME280;2377;51.734;8.950;2023-05-22T06:00:01;97674.63;;;20.14;72.20
27712;BME280;2377;51.734;8.950;2023-05-22T06:02:30;97678.22;;;20.18;72.05
27712;BME280;2377;51.734;8.950;2023-05-22T06:04:58;97677.16;;;20.19;71.65
27712;BME280;2377;51.734;8.950;2023-05-22T06:07:26;97680.25;;;20.21;72.05
27712;BME280;2377;51.734;8.950;2023-05-22T06:09:54;97678.16;;;20.23;72.05
27712;BME280;2377;51.734;8.950;2023-05-22T06:12:21;97674.97;;;20.26;72.10
27712;BME280;2377;51.734;8.950;2023-05-22T06:14:48;97677.03;;;20.29;72.05
27712;BME280;2377;51.734;8.950;2023-05-22T06:17:15;97683.78;;;20.30;71.56
27712;BME280;2377;51.734;8.950;2023-05-22T06:19:42;97683.00;;;20.30;71.34
27712;BME280;2377;51.734;8.950;2023-05-22T06:22:10;97685.53;;;20.35;71.80
27712;BME280;2377;51.734;8.950;2023-05-22T06:24:37;97683.06;;;20.43;71.78
27712;BME280;2377;51.734;8.950;2023-05-22T06:27:04;97694.69;;;20.51;71.57
27712;BME280;2377;51.734;8.950;2023-05-22T06:29:31;97691.78;;;20.58;71.42
27712;BME280;2377;51.734;8.950;2023-05-22T06:31:58;97689.59;;;20.65;71.38
27712;BME280;2377;51.734;8.950;2023-05-22T06:34:25;97695.41;;;20.76;71.09
27712;BME280;2377;51.734;8.950;2023-05-22T06:36:52;97696.06;;;20.86;71.01
27712;BME280;2377;51.734;8.950;2023-05-22T06:39:20;97701.59;;;20.99;70.75
27712;BME280;2377;51.734;8.950;2023-05-22T06:41:47;97707.69;;;21.08;70.61
27712;BME280;2377;51.734;8.950;2023-05-22T06:44:14;97710.22;;;21.13;70.22
27712;BME280;2377;51.734;8.950;2023-05-22T06:46:41;97706.47;;;21.19;69.77
27712;BME280;2377;51.734;8.950;2023-05-22T06:49:08;97709.75;;;21.25;70.00
27712;BME280;2377;51.734;8.950;2023-05-22T06:51:35;97707.56;;;21.32;68.68
27712;BME280;2377;51.734;8.950;2023-05-22T06:54:02;97709.41;;;21.31;68.95
27712;BME280;2377;51.734;8.950;2023-05-22T06:56:32;97709.31;;;21.37;69.17
27712;BME280;2377;51.734;8.950;2023-05-22T06:58:59;97714.19;;;21.43;69.46
27712;BME280;2377;51.734;8.950;2023-05-22T07:01:26;97722.66;;;21.49;68.96
27712;BME280;2377;51.734;8.950;2023-05-22T07:03:58;97720.56;;;21.51;68.73
27712;BME280;2377;51.734;8.950;2023-05-22T07:06:26;97713.25;;;21.53;68.92
27712;BME280;2377;51.734;8.950;2023-05-22T07:08:53;97715.00;;;21.58;68.97
27712;BME280;2377;51.734;8.950;2023-05-22T07:11:20;97715.75;;;21.58;68.97
27712;BME280;2377;51.734;8.950;2023-05-22T07:13:48;97722.53;;;21.59;69.39
27712;BME280;2377;51.734;8.950;2023-05-22T07:16:16;97721.16;;;21.62;69.33
27712;BME280;2377;51.734;8.950;2023-05-22T07:18:42;97724.25;;;21.64;69.57
27712;BME280;2377;51.734;8.950;2023-05-22T07:21:10;97716.47;;;21.64;69.34
27712;BME280;2377;51.734;8.950;2023-05-22T07:23:37;97718.56;;;21.62;69.22
27712;BME280;2377;51.734;8.950;2023-05-22T07:26:05;97709.22;;;21.61;69.24
27712;BME280;2377;51.734;8.950;2023-05-22T07:28:32;97711.81;;;21.61;69.21
27712;BME280;2377;51.734;8.950;2023-05-22T07:31:01;97710.00;;;21.61;69.16
27712;BME280;2377;51.734;8.950;2023-05-22T07:33:28;97711.72;;;21.66;69.34
27712;BME280;2377;51.734;8.950;2023-05-22T07:35:54;97714.91;;;21.77;69.91
27712;BME280;2377;51.734;8.950;2023-05-22T07:38:21;97709.25;;;21.88;69.78
27712;BME280;2377;51.734;8.950;2023-05-22T07:40:48;97713.50;;;21.98;69.03
27712;BME280;2377;51.734;8.950;2023-05-22T07:43:18;97712.84;;;22.06;68.58
27712;BME280;2377;51.734;8.950;2023-05-22T07:45:45;97714.84;;;22.09;68.74
27712;BME280;2377;51.734;8.950;2023-05-22T07:48:13;97716.31;;;22.15;68.52
27712;BME280;2377;51.734;8.950;2023-05-22T07:50:40;97716.13;;;22.26;68.38
27712;BME280;2377;51.734;8.950;2023-05-22T07:53:10;97719.41;;;22.31;67.75
27712;BME280;2377;51.734;8.950;2023-05-22T07:55:37;97717.97;;;22.39;67.97
27712;BME280;2377;51.734;8.950;2023-05-22T07:58:04;97713.13;;;22.46;67.65
27712;BME280;2377;51.734;8.950;2023-05-22T08:00:31;97719.28;;;22.50;68.35
27712;BME280;2377;51.734;8.950;2023-05-22T08:02:57;97715.03;;;22.54;67.92
27712;BME280;2377;51.734;8.950;2023-05-22T08:05:26;97720.13;;;22.59;67.72
27712;BME280;2377;51.734;8.950;2023-05-22T08:07:53;97720.31;;;22.63;67.50
27712;BME280;2377;51.734;8.950;2023-05-22T08:10:19;97721.56;;;22.66;66.65
27712;BME280;2377;51.734;8.950;2023-05-22T08:12:47;97716.38;;;22.66;66.25
27712;BME280;2377;51.734;8.950;2023-05-22T08:15:14;97719.13;;;22.69;67.77
27712;BME280;2377;51.734;8.950;2023-05-22T08:17:40;97721.66;;;22.74;68.02
27712;BME280;2377;51.734;8.950;2023-05-22T08:20:08;97720.78;;;22.79;67.56
27712;BME280;2377;51.734;8.950;2023-05-22T08:22:38;97720.53;;;22.89;67.08
27712;BME280;2377;51.734;8.950;2023-05-22T08:25:06;97723.91;;;23.04;66.89
27712;BME280;2377;51.734;8.950;2023-05-22T08:27:33;97724.97;;;23.25;66.90
27712;BME280;2377;51.734;8.950;2023-05-22T08:30:01;97723.84;;;23.40;66.36
27712;BME280;2377;51.734;8.950;2023-05-22T08:32:28;97725.72;;;23.48;63.92
27712;BME280;2377;51.734;8.950;2023-05-22T08:34:55;97718.88;;;23.61;64.77
27712;BME280;2377;51.734;8.950;2023-05-22T08:37:23;97713.78;;;23.78;65.20
27712;BME280;2377;51.734;8.950;2023-05-22T08:39:52;97723.19;;;23.88;61.80
27712;BME280;2377;51.734;8.950;2023-05-22T08:42:19;97721.47;;;23.83;61.81
27712;BME280;2377;51.734;8.950;2023-05-22T08:44:46;97721.47;;;23.83;61.88
27712;BME280;2377;51.734;8.950;2023-05-22T08:47:14;97719.19;;;23.91;61.68
27712;BME280;2377;51.734;8.950;2023-05-22T08:49:47;97719.53;;;23.98;61.21
27712;BME280;2377;51.734;8.950;2023-05-22T08:52:21;97719.41;;;24.03;61.61
27712;BME280;2377;51.734;8.950;2023-05-22T08:54:54;97714.38;;;24.15;62.52
27712;BME280;2377;51.734;8.950;2023-05-22T08:57:22;97719.63;;;24.33;61.78
27712;BME280;2377;51.734;8.950;2023-05-22T08:59:49;97718.88;;;24.41;60.38
27712;BME280;2377;51.734;8.950;2023-05-22T09:02:17;97708.75;;;24.48;61.50
27712;BME280;2377;51.734;8.950;2023-05-22T09:04:44;97712.78;;;24.54;61.93
27712;BME280;2377;51.734;8.950;2023-05-22T09:07:11;97706.94;;;24.57;61.60
27712;BME280;2377;51.734;8.950;2023-05-22T09:09:39;97707.72;;;24.58;58.85
27712;BME280;2377;51.734;8.950;2023-05-22T09:12:09;97710.94;;;24.63;60.03
27712;BME280;2377;51.734;8.950;2023-05-22T09:14:40;97710.34;;;24.84;59.97
27712;BME280;2377;51.734;8.950;2023-05-22T09:17:08;97706.50;;;25.07;58.36
27712;BME280;2377;51.734;8.950;2023-05-22T09:19:35;97708.03;;;25.26;59.49
27712;BME280;2377;51.734;8.950;2023-05-22T09:22:03;97712.63;;;25.38;57.03
27712;BME280;2377;51.734;8.950;2023-05-22T09:24:36;97712.59;;;25.46;55.73
27712;BME280;2377;51.734;8.950;2023-05-22T09:27:07;97714.56;;;25.58;56.29
27712;BME280;2377;51.734;8.950;2023-05-22T09:29:46;97719.41;;;25.77;56.43
27712;BME280;2377;51.734;8.950;2023-05-22T09:32:17;97713.69;;;25.92;57.08
27712;BME280;2377;51.734;8.950;2023-05-22T09:34:45;97724.28;;;26.05;56.75
27712;BME280;2377;51.734;8.950;2023-05-22T09:37:12;97723.03;;;26.11;54.42
27712;BME280;2377;51.734;8.950;2023-05-22T09:39:42;97716.28;;;26.01;53.29
27712;BME280;2377;51.734;8.950;2023-05-22T09:42:13;97717.38;;;25.91;54.27
27712;BME280;2377;51.734;8.950;2023-05-22T09:44:41;97720.66;;;25.88;54.10
27712;BME280;2377;51.734;8.950;2023-05-22T09:47:14;97710.34;;;25.74;54.56
27712;BME280;2377;51.734;8.950;2023-05-22T09:49:42;97718.69;;;25.68;54.58
27712;BME280;2377;51.734;8.950;2023-05-22T09:52:10;97708.53;;;25.66;55.02
27712;BME280;2377;51.734;8.950;2023-05-22T09:54:50;97723.63;;;25.61;54.67
27712;BME280;2377;51.734;8.950;2023-05-22T09:57:23;97721.81;;;25.61;54.08
27712;BME280;2377;51.734;8.950;2023-05-22T09:59:51;97713.78;;;25.58;54.11
27712;BME280;2377;51.734;8.950;2023-05-22T10:02:21;97724.56;;;25.65;54.11
27712;BME280;2377;51.734;8.950;2023-05-22T10:04:49;97714.06;;;25.73;54.29
27712;BME280;2377;51.734;8.950;2023-05-22T10:07:21;97719.56;;;25.89;53.76
27712;BME280;2377;51.734;8.950;2023-05-22T10:10:06;97723.78;;;26.11;52.09
27712;BME280;2377;51.734;8.950;2023-05-22T10:12:42;97724.47;;;26.29;52.58
27712;BME280;2377;51.734;8.950;2023-05-22T10:15:11;97715.28;;;26.44;53.09
27712;BME280;2377;51.734;8.950;2023-05-22T10:17:39;97716.72;;;26.63;52.67
27712;BME280;2377;51.734;8.950;2023-05-22T10:20:08;97706.47;;;26.70;52.27
27712;BME280;2377;51.734;8.950;2023-05-22T10:22:37;97714.16;;;26.75;50.94
27712;BME280;2377;51.734;8.950;2023-05-22T10:25:05;97717.47;;;26.84;50.82
27712;BME280;2377;51.734;8.950;2023-05-22T10:27:33;97710.63;;;26.92;49.66
27712;BME280;2377;51.734;8.950;2023-05-22T10:30:17;97702.75;;;26.92;49.87
27712;BME280;2377;51.734;8.950;2023-05-22T10:32:51;97701.09;;;26.87;49.40
27712;BME280;2377;51.734;8.950;2023-05-22T10:35:37;97697.00;;;26.77;49.35
27712;BME280;2377;51.734;8.950;2023-05-22T10:38:30;97698.81;;;26.65;50.42
27712;BME280;2377;51.734;8.950;2023-05-22T10:41:03;97695.47;;;26.55;49.74
27712;BME280;2377;51.734;8.950;2023-05-22T10:43:30;97699.78;;;26.51;49.78
27712;BME280;2377;51.734;8.950;2023-05-22T10:46:04;97698.13;;;26.47;49.20
27712;BME280;2377;51.734;8.950;2023-05-22T10:48:37;97704.31;;;26.42;50.27
27712;BME280;2377;51.734;8.950;2023-05-22T10:51:06;97696.97;;;26.35;50.73
27712;BME280;2377;51.734;8.950;2023-05-22T10:53:34;97699.78;;;26.30;50.77
27712;BME280;2377;51.734;8.950;2023-05-22T10:56:10;97697.00;;;26.27;51.17
27712;BME280;2377;51.734;8.950;2023-05-22T10:58:37;97702.59;;;26.25;51.27
27712;BME280;2377;51.734;8.950;2023-05-22T11:01:11;97698.75;;;26.23;50.19
27712;BME280;2377;51.734;8.950;2023-05-22T11:03:55;97697.53;;;26.20;51.38
27712;BME280;2377;51.734;8.950;2023-05-22T11:06:35;97694.91;;;26.20;50.80
27712;BME280;2377;51.734;8.950;2023-05-22T11:09:27;97698.59;;;26.19;50.71
27712;BME280;2377;51.734;8.950;2023-05-22T11:12:18;97699.50;;;26.23;50.63
27712;BME280;2377;51.734;8.950;2023-05-22T11:14:54;97696.06;;;26.31;50.45
27712;BME280;2377;51.734;8.950;2023-05-22T11:17:25;97695.91;;;26.36;49.78
27712;BME280;2377;51.734;8.950;2023-05-22T11:20:01;97701.56;;;26.39;49.08
27712;BME280;2377;51.734;8.950;2023-05-22T11:22:35;97694.41;;;26.48;49.98
27712;BME280;2377;51.734;8.950;2023-05-22T11:25:06;97695.59;;;26.59;51.64
27712;BME280;2377;51.734;8.950;2023-05-22T11:27:33;97689.56;;;26.80;50.72
27712;BME280;2377;51.734;8.950;2023-05-22T11:30:01;97690.84;;;26.94;50.40
27712;BME280;2377;51.734;8.950;2023-05-22T11:32:30;97692.63;;;27.03;48.89
27712;BME280;2377;51.734;8.950;2023-05-22T11:34:58;97683.97;;;27.02;48.71
27712;BME280;2377;51.734;8.950;2023-05-22T11:37:25;97688.56;;;26.93;49.33
27712;BME280;2377;51.734;8.950;2023-05-22T11:39:56;97677.41;;;26.96;49.10
27712;BME280;2377;51.734;8.950;2023-05-22T11:42:23;97678.28;;;27.00;49.97
27712;BME280;2377;51.734;8.950;2023-05-22T11:44:50;97674.94;;;27.12;49.22
27712;BME280;2377;51.734;8.950;2023-05-22T11:47:17;97667.94;;;27.16;50.83
27712;BME280;2377;51.734;8.950;2023-05-22T11:49:46;97665.25;;;27.25;49.36
27712;BME280;2377;51.734;8.950;2023-05-22T11:52:15;97668.09;;;27.32;49.82
27712;BME280;2377;51.734;8.950;2023-05-22T11:54:44;97662.84;;;27.32;49.29
27712;BME280;2377;51.734;8.950;2023-05-22T11:57:12;97656.41;;;27.41;48.98
27712;BME280;2377;51.734;8.950;2023-05-22T11:59:43;97654.81;;;27.49;49.53
27712;BME280;2377;51.734;8.950;2023-05-22T12:02:10;97647.47;;;27.55;47.08
27712;BME280;2377;51.734;8.950;2023-05-22T12:04:38;97645.69;;;27.47;47.59
27712;BME280;2377;51.734;8.950;2023-05-22T12:07:07;97642.53;;;27.41;47.77
27712;BME280;2377;51.734;8.950;2023-05-22T12:09:34;97641.66;;;27.49;49.41
27712;BME280;2377;51.734;8.950;2023-05-22T12:12:01;97636.84;;;27.51;47.58
27712;BME280;2377;51.734;8.950;2023-05-22T12:14:30;97634.88;;;27.48;48.30
27712;BME280;2377;51.734;8.950;2023-05-22T12:16:57;97640.34;;;27.55;48.61
27712;BME280;2377;51.734;8.950;2023-05-22T12:19:25;97641.31;;;27.63;48.84
27712;BME280;2377;51.734;8.950;2023-05-22T12:21:53;97639.69;;;27.71;48.33
27712;BME280;2377;51.734;8.950;2023-05-22T12:24:21;97632.69;;;27.75;47.55
27712;BME280;2377;51.734;8.950;2023-05-22T12:26:49;97641.13;;;27.80;48.79
27712;BME280;2377;51.734;8.950;2023-05-22T12:29:17;97646.06;;;27.94;48.20
27712;BME280;2377;51.734;8.950;2023-05-22T12:31:44;97646.59;;;28.00;47.98
27712;BME280;2377;51.734;8.950;2023-05-22T12:34:12;97644.50;;;28.06;48.60
27712;BME280;2377;51.734;8.950;2023-05-22T12:36:42;97654.00;;;28.10;48.33
27712;BME280;2377;51.734;8.950;2023-05-22T12:39:10;97648.31;;;28.20;48.58
27712;BME280;2377;51.734;8.950;2023-05-22T12:41:39;97650.78;;;28.29;48.16
27712;BME280;2377;51.734;8.950;2023-05-22T12:44:06;97652.22;;;28.39;47.75
27712;BME280;2377;51.734;8.950;2023-05-22T12:46:33;97649.66;;;28.42;45.63
27712;BME280;2377;51.734;8.950;2023-05-22T12:49:01;97641.56;;;28.48;45.45
27712;BME280;2377;51.734;8.950;2023-05-22T12:51:30;97635.75;;;28.54;45.47
27712;BME280;2377;51.734;8.950;2023-05-22T12:53:58;97632.31;;;28.66;45.47
27712;BME280;2377;51.734;8.950;2023-05-22T12:56:25;97632.06;;;28.71;45.28
27712;BME280;2377;51.734;8.950;2023-05-22T12:58:55;97630.03;;;28.80;45.11
27712;BME280;2377;51.734;8.950;2023-05-22T13:01:22;97629.91;;;28.89;44.48
27712;BME280;2377;51.734;8.950;2023-05-22T13:03:50;97625.22;;;28.82;44.60
27712;BME280;2377;51.734;8.950;2023-05-22T13:06:17;97635.31;;;28.80;44.84
27712;BME280;2377;51.734;8.950;2023-05-22T13:08:45;97633.34;;;28.77;42.86
27712;BME280;2377;51.734;8.950;2023-05-22T13:11:12;97636.06;;;28.81;43.82
27712;BME280;2377;51.734;8.950;2023-05-22T13:13:38;97632.59;;;28.77;42.68
27712;BME280;2377;51.734;8.950;2023-05-22T13:16:08;97624.94;;;28.72;42.72
27712;BME280;2377;51.734;8.950;2023-05-22T13:18:35;97633.34;;;28.77;44.60
27712;BME280;2377;51.734;8.950;2023-05-22T13:21:02;97625.38;;;28.90;44.98